Time;durP1;ratioP1;P1;durP2;ratioP2;P2;SDS_P1;SDS_P2;PMS_P1;PMS_P2;Temp;Humidity;BMP_temperature;BMP_pressure;BME280_temperature;BME280_humidity;BME280_pressure;Samples;Min_cycle;Max_cycle;Signal;HPM_P1;HPM_P2
2024/02/16 00:01:10;;;;;;;12.63;5.93;;;;;;;;;;5006511;28;20778;-90
2024/02/16 00:04:18;;;;;;;13.90;6.20;;;;;;;;;;5007429;28;20189;-88
2024/02/16 00:07:23;;;;;;;15.97;6.57;;;;;;;;;;5012125;28;20317;-91
2024/02/16 00:10:30;;;;;;;15.20;6.97;;;;;;;;;;5009121;28;20185;-89
2024/02/16 00:13:35;;;;;;;12.60;6.33;;;;;;;;;;5008232;28;20728;-90
2024/02/16 00:16:40;;;;;;;13.90;7.33;;;;;;;;;;5007301;28;20333;-90
2024/02/16 00:19:47;;;;;;;17.97;7.20;;;;;;;;;;5008213;28;20201;-91
2024/02/16 00:22:52;;;;;;;14.17;6.80;;;;;;;;;;5007875;28;20259;-90
2024/02/16 00:25:57;;;;;;;14.50;7.00;;;;;;;;;;5008740;28;20197;-91
2024/02/16 00:29:02;;;;;;;12.97;7.17;;;;;;;;;;5008587;28;20188;-91
2024/02/16 00:32:07;;;;;;;14.33;6.67;;;;;;;;;;5007934;28;20194;-92
2024/02/16 00:35:16;;;;;;;11.10;6.53;;;;;;;;;;5005851;28;20269;-91
2024/02/16 00:38:22;;;;;;;12.87;6.50;;;;;;;;;;5008600;28;20197;-92
2024/02/16 00:41:29;;;;;;;15.67;6.57;;;;;;;;;;5004954;28;20234;-88
2024/02/16 00:44:34;;;;;;;13.70;6.10;;;;;;;;;;5006263;28;20197;-90
2024/02/16 00:47:39;;;;;;;14.70;7.00;;;;;;;;;;5006265;28;20209;-91
2024/02/16 00:50:46;;;;;;;12.63;6.83;;;;;;;;;;5005889;28;20583;-90
2024/02/16 00:53:51;;;;;;;12.93;6.53;;;;;;;;;;5006142;28;20217;-90
2024/02/16 00:57:01;;;;;;;15.27;6.37;;;;;;;;;;5005768;28;20687;-91
2024/02/16 01:00:06;;;;;;;16.20;6.63;;;;;;;;;;5004045;28;20201;-90
2024/02/16 01:03:12;;;;;;;16.70;7.30;;;;;;;;;;5005765;28;20274;-91
2024/02/16 01:06:19;;;;;;;12.37;6.83;;;;;;;;;;5004722;28;20274;-89
2024/02/16 01:09:24;;;;;;;12.77;6.53;;;;;;;;;;5004735;28;20252;-88
2024/02/16 01:12:30;;;;;;;12.67;6.53;;;;;;;;;;5004975;28;20560;-90
2024/02/16 01:15:36;;;;;;;14.53;7.00;;;;;;;;;;5004844;28;20237;-89
2024/02/16 01:18:42;;;;;;;15.00;7.37;;;;;;;;;;5005244;28;20221;-90
2024/02/16 01:21:57;;;;;;;16.83;7.37;;;;;;;;;;5005377;28;20287;-89
2024/02/16 01:25:04;;;;;;;16.33;7.77;;;;;;;;;;5006512;28;20197;-90
2024/02/16 01:28:12;;;;;;;16.23;7.70;;;;;;;;;;4994557;28;20770;-92
2024/02/16 01:31:17;;;;;;;16.47;8.50;;;;;;;;;;4986213;28;20198;-90
2024/02/16 01:34:22;;;;;;;16.77;7.97;;;;;;;;;;4986039;28;20190;-91
2024/02/16 01:37:29;;;;;;;16.37;7.70;;;;;;;;;;4990015;28;20193;-90
2024/02/16 01:40:34;;;;;;;17.93;8.33;;;;;;;;;;4990261;28;20218;-91
2024/02/16 01:43:42;;;;;;;16.13;7.83;;;;;;;;;;4986163;28;20202;-90
2024/02/16 01:46:47;;;;;;;15.10;7.97;;;;;;;;;;4986748;28;20317;-89
2024/02/16 01:49:53;;;;;;;19.57;8.20;;;;;;;;;;4985561;28;20273;-91
2024/02/16 01:52:59;;;;;;;16.73;7.80;;;;;;;;;;4985554;28;20193;-88
2024/02/16 01:56:05;;;;;;;17.83;8.10;;;;;;;;;;4984926;28;20233;-91
2024/02/16 01:59:10;;;;;;;17.37;8.27;;;;;;;;;;4986071;28;20190;-89
2024/02/16 02:02:15;;;;;;;17.03;8.03;;;;;;;;;;4984659;28;20434;-88
2024/02/16 02:05:21;;;;;;;16.00;8.47;;;;;;;;;;4985777;28;20190;-91
2024/02/16 02:08:27;;;;;;;18.93;8.07;;;;;;;;;;4985486;28;20691;-92
2024/02/16 02:11:32;;;;;;;25.40;8.60;;;;;;;;;;4987086;28;20213;-90
2024/02/16 02:14:37;;;;;;;44.40;8.87;;;;;;;;;;4986301;28;20197;-90
2024/02/16 02:17:42;;;;;;;29.43;8.40;;;;;;;;;;4986624;28;20198;-91
2024/02/16 02:20:47;;;;;;;53.67;8.87;;;;;;;;;;4986644;28;20213;-89
2024/02/16 02:23:53;;;;;;;23.93;7.60;;;;;;;;;;4997203;28;20207;-90
2024/02/16 02:26:59;;;;;;;29.97;8.47;;;;;;;;;;5009149;28;20224;-92
2024/02/16 02:30:05;;;;;;;59.93;9.57;;;;;;;;;;5009002;28;20204;-90
2024/02/16 02:33:11;;;;;;;20.77;8.20;;;;;;;;;;4990803;28;20193;-89
2024/02/16 02:36:16;;;;;;;71.27;9.87;;;;;;;;;;4990512;28;20281;-88
2024/02/16 02:39:25;;;;;;;43.70;8.70;;;;;;;;;;4990663;28;20209;-91
2024/02/16 02:42:31;;;;;;;64.07;8.60;;;;;;;;;;4990488;28;20349;-90
2024/02/16 02:45:36;;;;;;;81.30;9.70;;;;;;;;;;4990501;28;20193;-91
2024/02/16 02:48:41;;;;;;;64.73;9.37;;;;;;;;;;4988796;28;20214;-91
2024/02/16 02:51:46;;;;;;;73.77;9.80;;;;;;;;;;4994282;28;20248;-90
2024/02/16 02:54:52;;;;;;;89.60;11.13;;;;;;;;;;5007576;28;20293;-90
2024/02/16 02:57:58;;;;;;;82.87;10.40;;;;;;;;;;5006771;28;20189;-89
2024/02/16 03:01:03;;;;;;;101.50;11.17;;;;;;;;;;5008221;28;20241;-89
2024/02/16 03:04:09;;;;;;;52.47;10.37;;;;;;;;;;5007497;28;20193;-91
2024/02/16 03:07:14;;;;;;;67.77;10.53;;;;;;;;;;5007119;28;20192;-90
2024/02/16 03:10:23;;;;;;;59.97;9.57;;;;;;;;;;5007196;28;20266;-90
2024/02/16 03:13:30;;;;;;;51.67;10.33;;;;;;;;;;5007109;28;20208;-90
2024/02/16 03:16:36;;;;;;;54.40;10.50;;;;;;;;;;5006804;28;20193;-90
2024/02/16 03:19:41;;;;;;;36.63;9.70;;;;;;;;;;5007214;28;20193;-89
2024/02/16 03:22:46;;;;;;;50.47;10.03;;;;;;;;;;5006623;28;20213;-90
2024/02/16 03:25:52;;;;;;;43.93;9.03;;;;;;;;;;5007416;28;20180;-90
2024/02/16 03:28:57;;;;;;;34.17;10.13;;;;;;;;;;5007180;28;20185;-93
2024/02/16 03:32:02;;;;;;;36.50;10.10;;;;;;;;;;5005932;28;20188;-90
2024/02/16 03:35:08;;;;;;;23.13;8.70;;;;;;;;;;5006515;28;20189;-90
2024/02/16 03:38:13;;;;;;;25.70;9.83;;;;;;;;;;5007273;28;20209;-91
2024/02/16 03:41:22;;;;;;;50.40;9.20;;;;;;;;;;5005519;28;20292;-89
2024/02/16 03:44:27;;;;;;;32.97;9.07;;;;;;;;;;5007555;28;20193;-89
2024/02/16 03:47:32;;;;;;;26.03;8.40;;;;;;;;;;5007621;28;20192;-90
2024/02/16 03:50:38;;;;;;;44.37;8.53;;;;;;;;;;5008039;28;20193;-90
2024/02/16 03:53:44;;;;;;;29.23;8.20;;;;;;;;;;5007842;28;20204;-91
2024/02/16 03:56:54;;;;;;;30.90;8.17;;;;;;;;;;5006116;28;20273;-90
2024/02/16 03:59:59;;;;;;;41.47;8.20;;;;;;;;;;5006981;28;20196;-90
2024/02/16 04:03:05;;;;;;;43.13;8.10;;;;;;;;;;5006476;28;20217;-89
2024/02/16 04:06:10;;;;;;;25.00;8.30;;;;;;;;;;5005549;28;20309;-91
2024/02/16 04:09:15;;;;;;;30.17;7.93;;;;;;;;;;5006554;28;20196;-92
2024/02/16 04:12:22;;;;;;;35.87;8.03;;;;;;;;;;4995613;28;20201;-90
2024/02/16 04:15:27;;;;;;;63.03;7.87;;;;;;;;;;4986337;28;20282;-92
2024/02/16 04:18:32;;;;;;;37.07;7.53;;;;;;;;;;4986120;28;20203;-90
2024/02/16 04:21:37;;;;;;;25.97;7.23;;;;;;;;;;4986264;28;20225;-90
2024/02/16 04:24:42;;;;;;;34.70;8.07;;;;;;;;;;4985925;28;20198;-92
2024/02/16 04:27:49;;;;;;;44.97;7.90;;;;;;;;;;4985484;28;20190;-92
2024/02/16 04:30:54;;;;;;;29.30;8.07;;;;;;;;;;4987670;28;20237;-91
2024/02/16 04:34:03;;;;;;;33.43;7.07;;;;;;;;;;5005489;28;20569;-92
2024/02/16 04:37:08;;;;;;;20.00;7.17;;;;;;;;;;5005776;28;20193;-89
2024/02/16 04:40:14;;;;;;;25.90;7.37;;;;;;;;;;5005536;28;20292;-89
2024/02/16 04:43:21;;;;;;;33.07;7.67;;;;;;;;;;4965367;29;20194;-88
2024/02/16 04:46:26;;;;;;;47.90;8.80;;;;;;;;;;4965536;28;20665;-90
2024/02/16 04:49:31;;;;;;;41.17;8.87;;;;;;;;;;4966424;29;20199;-92
2024/02/16 04:52:37;;;;;;;40.57;7.67;;;;;;;;;;4966318;29;20218;-92
2024/02/16 04:55:42;;;;;;;40.77;7.70;;;;;;;;;;4965788;29;20198;-92
2024/02/16 04:58:49;;;;;;;16.63;6.53;;;;;;;;;;4966153;29;20565;-91
2024/02/16 05:01:55;;;;;;;24.80;7.17;;;;;;;;;;4965582;29;20253;-89
2024/02/16 05:05:01;;;;;;;23.57;7.47;;;;;;;;;;4966483;29;20209;-92
2024/02/16 05:08:06;;;;;;;16.83;7.70;;;;;;;;;;4966274;28;20266;-91
2024/02/16 05:11:12;;;;;;;42.60;7.87;;;;;;;;;;4965303;29;20560;-91
2024/02/16 05:14:19;;;;;;;23.43;8.50;;;;;;;;;;4966330;29;20197;-90
2024/02/16 05:17:24;;;;;;;19.40;7.70;;;;;;;;;;4965327;29;20666;-90
2024/02/16 05:20:29;;;;;;;24.50;7.57;;;;;;;;;;4965535;29;20222;-90
2024/02/16 05:23:35;;;;;;;16.17;7.03;;;;;;;;;;4966258;28;20234;-91
2024/02/16 05:26:41;;;;;;;27.83;7.47;;;;;;;;;;4966630;29;20245;-91
2024/02/16 05:29:50;;;;;;;17.47;7.00;;;;;;;;;;4965236;29;20199;-89
2024/02/16 05:32:58;;;;;;;19.40;6.27;;;;;;;;;;4966308;29;20191;-90
2024/02/16 05:36:03;;;;;;;30.00;7.10;;;;;;;;;;4965939;29;20193;-91
2024/02/16 05:39:20;;;;;;;26.03;6.83;;;;;;;;;;4967033;29;20222;-90
2024/02/16 05:42:25;;;;;;;44.30;6.93;;;;;;;;;;4967563;29;20274;-92
2024/02/16 05:45:31;;;;;;;21.07;7.30;;;;;;;;;;4965422;29;20206;-89
2024/02/16 05:48:39;;;;;;;44.07;8.13;;;;;;;;;;4964782;28;20230;-89
2024/02/16 05:52:17;;;;;;;53.67;8.40;;;;;;;;;;4965200;29;20199;-90
2024/02/16 05:55:18;;;;;;;17.70;7.83;;;;;;;;;;4965781;29;20193;-92
2024/02/16 05:58:24;;;;;;;43.40;8.43;;;;;;;;;;4964798;28;20234;-91
2024/02/16 06:01:30;;;;;;;17.67;7.30;;;;;;;;;;4965385;29;20218;-90
2024/02/16 06:04:36;;;;;;;25.20;6.90;;;;;;;;;;4967477;28;20187;-91
2024/02/16 06:07:41;;;;;;;19.77;6.60;;;;;;;;;;4980323;28;20192;-90
2024/02/16 06:10:51;;;;;;;43.93;7.40;;;;;;;;;;5006146;28;20192;-93
2024/02/16 06:13:56;;;;;;;23.33;7.73;;;;;;;;;;5006051;28;20664;-92
2024/02/16 06:17:02;;;;;;;55.77;8.63;;;;;;;;;;5004389;28;20193;-91
2024/02/16 06:20:11;;;;;;;30.43;8.50;;;;;;;;;;5005390;28;20181;-89
2024/02/16 06:23:17;;;;;;;39.67;8.23;;;;;;;;;;5006268;28;20197;-89
2024/02/16 06:26:22;;;;;;;49.60;8.97;;;;;;;;;;5005726;28;20189;-92
2024/02/16 06:29:27;;;;;;;49.60;8.97;;;;;;;;;;5005771;28;20188;-91
2024/02/16 06:32:35;;;;;;;55.90;9.07;;;;;;;;;;5006441;28;20201;-92
2024/02/16 06:35:40;;;;;;;49.67;9.27;;;;;;;;;;5006128;28;20188;-90
2024/02/16 06:38:46;;;;;;;40.40;8.50;;;;;;;;;;5005698;28;20711;-90
2024/02/16 06:41:53;;;;;;;50.40;9.50;;;;;;;;;;5006828;28;20219;-89
2024/02/16 06:44:59;;;;;;;38.80;9.47;;;;;;;;;;5005254;28;20324;-89
2024/02/16 06:48:06;;;;;;;52.63;9.77;;;;;;;;;;5006401;28;20197;-90
2024/02/16 06:51:11;;;;;;;108.10;11.10;;;;;;;;;;5007878;28;20173;-89
2024/02/16 06:54:16;;;;;;;91.90;9.93;;;;;;;;;;5007434;28;20204;-92
2024/02/16 06:57:22;;;;;;;45.93;10.23;;;;;;;;;;5008512;28;20221;-90
2024/02/16 07:00:28;;;;;;;31.47;9.77;;;;;;;;;;5010104;28;20201;-90
2024/02/16 07:03:39;;;;;;;58.10;9.80;;;;;;;;;;4998763;28;20300;-91
2024/02/16 07:06:44;;;;;;;53.53;9.73;;;;;;;;;;4986499;28;20217;-90
2024/02/16 07:09:49;;;;;;;55.43;10.63;;;;;;;;;;4988832;28;20194;-91
2024/02/16 07:12:55;;;;;;;52.53;9.30;;;;;;;;;;4991552;28;20200;-92
2024/02/16 07:16:00;;;;;;;36.47;9.40;;;;;;;;;;4991778;28;20270;-90
2024/02/16 07:19:08;;;;;;;31.47;8.60;;;;;;;;;;4990957;28;20182;-91
2024/02/16 07:22:14;;;;;;;57.40;9.80;;;;;;;;;;4990970;28;20608;-91
2024/02/16 07:25:19;;;;;;;66.33;8.97;;;;;;;;;;4992218;28;20193;-91
2024/02/16 07:28:25;;;;;;;19.83;8.63;;;;;;;;;;4992227;28;20267;-90
2024/02/16 07:31:43;;;;;;;35.60;9.63;;;;;;;;;;4994650;28;20193;-93
2024/02/16 07:34:51;;;;;;;53.37;11.50;;;;;;;;;;4993748;28;20197;-89
2024/02/16 07:37:57;;;;;;;41.90;9.13;;;;;;;;;;4992595;28;20193;-90
2024/02/16 07:41:04;;;;;;;23.47;9.20;;;;;;;;;;4993414;28;20189;-89
2024/02/16 07:44:10;;;;;;;20.30;9.47;;;;;;;;;;4992994;28;20259;-90
2024/02/16 07:47:15;;;;;;;34.10;9.23;;;;;;;;;;4993479;28;20196;-90
2024/02/16 07:50:23;;;;;;;32.73;9.57;;;;;;;;;;4993893;28;20225;-90
2024/02/16 07:53:29;;;;;;;44.30;8.70;;;;;;;;;;4992027;28;20189;-89
2024/02/16 07:56:34;;;;;;;21.13;8.83;;;;;;;;;;4991842;28;20191;-88
2024/02/16 07:59:40;;;;;;;18.13;9.17;;;;;;;;;;4990556;28;20226;-91
2024/02/16 08:02:47;;;;;;;22.90;9.03;;;;;;;;;;4990921;28;20225;-91
2024/02/16 08:05:53;;;;;;;26.67;8.90;;;;;;;;;;4990375;28;20208;-92
2024/02/16 08:08:58;;;;;;;21.27;9.00;;;;;;;;;;4991512;28;20182;-92
2024/02/16 08:12:06;;;;;;;17.03;8.00;;;;;;;;;;4991023;28;20205;-91
2024/02/16 08:15:12;;;;;;;14.60;7.60;;;;;;;;;;4989705;28;20225;-91
2024/02/16 08:18:20;;;;;;;15.43;7.43;;;;;;;;;;4991648;28;20190;-91
2024/02/16 08:21:28;;;;;;;18.75;7.78;;;;;;;;;;4989954;28;20424;-91
2024/02/16 08:24:34;;;;;;;21.17;8.30;;;;;;;;;;4990733;28;20189;-89
2024/02/16 08:27:41;;;;;;;20.48;9.38;;;;;;;;;;4990669;28;20186;-90
2024/02/16 08:30:47;;;;;;;17.45;8.85;;;;;;;;;;4991146;28;20181;-91
2024/02/16 08:33:52;;;;;;;19.50;9.68;;;;;;;;;;4990166;28;20198;-89
2024/02/16 08:37:01;;;;;;;19.70;10.03;;;;;;;;;;4990610;28;20222;-88
2024/02/16 08:40:11;;;;;;;25.27;9.70;;;;;;;;;;4990331;28;20205;-90
2024/02/16 08:43:16;;;;;;;22.98;9.95;;;;;;;;;;4991775;28;20229;-91
2024/02/16 08:46:22;;;;;;;19.23;9.77;;;;;;;;;;4996787;28;20271;-90
2024/02/16 08:49:28;;;;;;;22.87;10.03;;;;;;;;;;4989706;28;20193;-93
2024/02/16 08:52:35;;;;;;;22.40;10.00;;;;;;;;;;4973343;28;20199;-89
2024/02/16 08:55:41;;;;;;;17.67;9.50;;;;;;;;;;4972300;28;20199;-90
2024/02/16 08:58:50;;;;;;;16.67;8.37;;;;;;;;;;4974339;29;20314;-92
2024/02/16 09:01:56;;;;;;;22.52;9.85;;;;;;;;;;4971399;28;20222;-92
2024/02/16 09:05:01;;;;;;;18.48;9.55;;;;;;;;;;4973059;28;20280;-92
2024/02/16 09:08:09;;;;;;;15.05;8.10;;;;;;;;;;4971795;28;20268;-92
2024/02/16 09:11:20;;;;;;;15.65;7.95;;;;;;;;;;4971472;28;20219;-91
2024/02/16 09:14:25;;;;;;;14.88;8.27;;;;;;;;;;4968893;28;20202;-91
2024/02/16 09:20:52;;;;;;;16.55;8.52;;;;;;;;;;4971032;28;20187;-91
2024/02/16 09:27:24;;;;;;;17.70;9.25;;;;;;;;;;4972264;28;20194;-92
2024/02/16 09:30:32;;;;;;;19.13;9.85;;;;;;;;;;5001715;28;20248;-90
2024/02/16 09:33:37;;;;;;;19.33;10.15;;;;;;;;;;5010084;28;20197;-92
2024/02/16 09:36:43;;;;;;;19.58;10.68;;;;;;;;;;5008997;28;20185;-91
2024/02/16 09:39:50;;;;;;;26.90;13.98;;;;;;;;;;4995873;28;20252;-92
2024/02/16 09:42:55;;;;;;;29.38;12.02;;;;;;;;;;4991164;28;20216;-92
2024/02/16 09:46:01;;;;;;;24.38;12.57;;;;;;;;;;4989408;28;20185;-92
2024/02/16 09:49:06;;;;;;;26.65;12.93;;;;;;;;;;4990344;28;20188;-93
2024/02/16 09:52:21;;;;;;;25.42;12.40;;;;;;;;;;4993643;28;20569;-89
2024/02/16 11:50:01;;;;;;;39.22;15.68;;;;;;;;;;5664573;22;20249;-92
2024/02/16 11:53:10;;;;;;;34.65;15.48;;;;;;;;;;4993412;28;20210;-89
2024/02/16 11:56:29;;;;;;;31.27;14.95;;;;;;;;;;4993000;28;20201;-93
2024/02/16 11:59:35;;;;;;;25.83;13.23;;;;;;;;;;4977682;28;20212;-92
2024/02/16 12:02:44;;;;;;;29.38;13.55;;;;;;;;;;4989824;28;20221;-91
2024/02/16 12:05:56;;;;;;;21.38;9.95;;;;;;;;;;4992297;28;20205;-92
2024/02/16 12:09:01;;;;;;;25.73;12.55;;;;;;;;;;4985017;28;20201;-92
2024/02/16 12:12:24;;;;;;;26.38;12.75;;;;;;;;;;4993067;28;20181;-93
2024/02/16 12:15:47;;;;;;;24.30;12.40;;;;;;;;;;4973857;28;20191;-93
2024/02/16 12:19:05;;;;;;;26.25;12.63;;;;;;;;;;4986193;28;20185;-94
2024/02/16 12:22:20;;;;;;;25.35;11.43;;;;;;;;;;4994302;28;20198;-91
2024/02/16 12:25:26;;;;;;;22.45;10.57;;;;;;;;;;4993239;28;20194;-93
2024/02/16 12:28:33;;;;;;;19.02;9.50;;;;;;;;;;4992918;28;20181;-92
2024/02/16 12:31:40;;;;;;;18.80;9.20;;;;;;;;;;4992127;28;20209;-92
2024/02/16 12:34:46;;;;;;;21.00;9.50;;;;;;;;;;4991344;28;20205;-91
2024/02/16 12:37:54;;;;;;;20.08;9.55;;;;;;;;;;4992585;28;20185;-91
2024/02/16 12:41:01;;;;;;;23.48;11.23;;;;;;;;;;4990347;28;20210;-93
2024/02/16 12:44:07;;;;;;;32.22;12.18;;;;;;;;;;4980632;28;20213;-93
2024/02/16 12:47:13;;;;;;;16.77;5.25;;;;;;;;;;4991038;28;20183;-92
2024/02/16 12:50:24;;;;;;;12.85;5.82;;;;;;;;;;4990592;28;20222;-92
2024/02/16 12:53:40;;;;;;;18.50;8.30;;;;;;;;;;4990011;28;20194;-90
2024/02/16 12:56:46;;;;;;;17.17;8.45;;;;;;;;;;4990806;28;20178;-91
2024/02/16 12:59:51;;;;;;;20.55;8.30;;;;;;;;;;4992383;28;20560;-91
2024/02/16 13:02:57;;;;;;;14.68;7.68;;;;;;;;;;4993261;28;20182;-91
2024/02/16 13:09:24;;;;;;;17.02;7.95;;;;;;;;;;4994079;28;20247;-92
2024/02/16 13:12:32;;;;;;;15.60;7.93;;;;;;;;;;4991430;28;20221;-91
2024/02/16 13:15:38;;;;;;;18.63;8.82;;;;;;;;;;4990850;28;20238;-93
2024/02/16 13:18:43;;;;;;;13.63;7.07;;;;;;;;;;4991067;28;20209;-92
2024/02/16 13:21:51;;;;;;;13.25;6.45;;;;;;;;;;4991593;28;20194;-92
2024/02/16 13:24:59;;;;;;;11.23;5.60;;;;;;;;;;4991750;28;20213;-90
2024/02/16 13:28:05;;;;;;;14.88;5.10;;;;;;;;;;4991979;28;20212;-92
2024/02/16 13:31:11;;;;;;;18.02;6.15;;;;;;;;;;4991096;28;20186;-91
2024/02/16 13:34:18;;;;;;;16.73;5.82;;;;;;;;;;4991479;28;20254;-91
2024/02/16 13:37:23;;;;;;;11.52;5.35;;;;;;;;;;4992051;28;20189;-91
2024/02/16 13:40:30;;;;;;;13.98;4.95;;;;;;;;;;4990760;28;20194;-91
2024/02/16 13:43:39;;;;;;;23.67;9.90;;;;;;;;;;4992093;28;20253;-93
2024/02/16 13:46:47;;;;;;;12.40;5.38;;;;;;;;;;4971605;28;20704;-91
2024/02/16 13:49:52;;;;;;;11.38;5.45;;;;;;;;;;4971417;28;20880;-91
2024/02/16 13:52:57;;;;;;;9.25;4.32;;;;;;;;;;4970417;28;20174;-93
2024/02/16 13:56:05;;;;;;;11.68;5.18;;;;;;;;;;4970334;28;20182;-94
2024/02/16 13:59:11;;;;;;;12.57;5.40;;;;;;;;;;4970525;28;20194;-92
2024/02/16 14:05:37;;;;;;;15.18;6.43;;;;;;;;;;4993187;28;20726;-93
2024/02/16 14:08:44;;;;;;;12.70;6.40;;;;;;;;;;4991496;28;20261;-92
2024/02/16 14:11:53;;;;;;;15.05;6.93;;;;;;;;;;4990605;28;20467;-90
2024/02/16 14:14:58;;;;;;;15.07;7.10;;;;;;;;;;4990237;28;20197;-92
2024/02/16 14:18:07;;;;;;;15.20;7.35;;;;;;;;;;4990140;28;20246;-94
2024/02/16 14:21:12;;;;;;;14.75;7.45;;;;;;;;;;4990737;28;20274;-93
2024/02/16 14:24:17;;;;;;;14.25;7.15;;;;;;;;;;4991146;28;20225;-93
2024/02/16 14:27:25;;;;;;;14.60;7.20;;;;;;;;;;4989308;28;20226;-89
2024/02/16 14:30:32;;;;;;;17.63;8.48;;;;;;;;;;4987889;28;20201;-92
2024/02/16 14:33:37;;;;;;;17.58;8.70;;;;;;;;;;4989306;28;20209;-90
2024/02/16 14:36:43;;;;;;;18.55;9.35;;;;;;;;;;4971145;28;20234;-92
2024/02/16 14:39:49;;;;;;;19.10;9.57;;;;;;;;;;4969594;28;20262;-94
2024/02/16 14:42:56;;;;;;;18.83;9.80;;;;;;;;;;4969769;28;20174;-90
2024/02/16 14:46:04;;;;;;;18.70;9.23;;;;;;;;;;4969580;28;20286;-91
2024/02/16 14:49:10;;;;;;;20.92;9.35;;;;;;;;;;4982169;28;20233;-92
2024/02/16 14:52:16;;;;;;;18.40;8.68;;;;;;;;;;4989239;28;20201;-91
2024/02/16 14:55:22;;;;;;;19.58;8.65;;;;;;;;;;4986423;28;20197;-92
2024/02/16 14:58:29;;;;;;;15.45;8.10;;;;;;;;;;5001630;28;20220;-92
2024/02/16 15:01:34;;;;;;;18.48;8.85;;;;;;;;;;5008614;28;20177;-90
2024/02/16 15:04:41;;;;;;;20.83;9.50;;;;;;;;;;5009950;28;20236;-91
2024/02/16 15:07:47;;;;;;;18.25;9.18;;;;;;;;;;5008804;28;20201;-91
2024/02/16 15:10:52;;;;;;;12.50;7.05;;;;;;;;;;5009146;28;20256;-94
2024/02/16 15:14:00;;;;;;;16.15;7.32;;;;;;;;;;5007634;28;20320;-93
2024/02/16 15:17:06;;;;;;;14.32;6.75;;;;;;;;;;5008193;28;20182;-92
2024/02/16 15:20:11;;;;;;;20.65;6.95;;;;;;;;;;5008480;28;20189;-93
2024/02/16 15:23:21;;;;;;;14.98;6.68;;;;;;;;;;5008883;28;20189;-91
2024/02/16 15:26:26;;;;;;;13.13;6.70;;;;;;;;;;5007661;28;20216;-91
2024/02/16 15:29:34;;;;;;;18.52;7.35;;;;;;;;;;5007688;28;20705;-91
2024/02/16 15:32:41;;;;;;;21.08;8.93;;;;;;;;;;5012928;28;20173;-92
2024/02/16 15:35:46;;;;;;;15.82;7.28;;;;;;;;;;5011440;28;20185;-92
2024/02/16 15:38:52;;;;;;;21.52;8.25;;;;;;;;;;5011445;28;20196;-92
2024/02/16 15:41:58;;;;;;;25.88;10.02;;;;;;;;;;5012523;28;20205;-93
2024/02/16 15:45:08;;;;;;;21.88;8.85;;;;;;;;;;5011612;28;20592;-93
2024/02/16 15:48:15;;;;;;;24.48;8.57;;;;;;;;;;5012989;28;20228;-94
2024/02/16 15:51:20;;;;;;;23.58;8.65;;;;;;;;;;5011529;28;20244;-92
2024/02/16 15:54:26;;;;;;;20.52;9.00;;;;;;;;;;5011873;28;20227;-92
2024/02/16 15:57:33;;;;;;;22.92;9.10;;;;;;;;;;5011363;28;20270;-91
2024/02/16 16:00:40;;;;;;;24.95;9.13;;;;;;;;;;5011027;28;20216;-90
2024/02/16 16:03:46;;;;;;;20.92;8.93;;;;;;;;;;5012249;28;20197;-95
2024/02/16 16:06:53;;;;;;;23.58;11.10;;;;;;;;;;5011203;28;20679;-91
2024/02/16 16:10:06;;;;;;;20.65;10.05;;;;;;;;;;4995360;28;20205;-91
2024/02/16 16:13:12;;;;;;;26.35;11.00;;;;;;;;;;4991526;28;20637;-90
2024/02/16 16:16:19;;;;;;;17.42;8.98;;;;;;;;;;4990718;28;20238;-93
2024/02/16 16:19:24;;;;;;;22.17;10.43;;;;;;;;;;4991201;28;20237;-93
2024/02/16 16:22:29;;;;;;;22.58;10.32;;;;;;;;;;4989521;28;20267;-92
2024/02/16 16:25:35;;;;;;;21.25;10.48;;;;;;;;;;4990751;28;20797;-91
2024/02/16 16:28:41;;;;;;;20.33;8.77;;;;;;;;;;4990483;28;20275;-91
2024/02/16 16:31:49;;;;;;;22.58;10.73;;;;;;;;;;5002661;28;20336;-93
2024/02/16 16:34:56;;;;;;;27.08;11.70;;;;;;;;;;5001114;28;20201;-90
2024/02/16 16:38:01;;;;;;;30.88;11.52;;;;;;;;;;4987900;28;20609;-90
2024/02/16 16:41:07;;;;;;;25.50;11.32;;;;;;;;;;4988593;28;20281;-92
2024/02/16 16:44:13;;;;;;;21.35;10.13;;;;;;;;;;4989737;28;20205;-90
2024/02/16 16:47:20;;;;;;;26.25;11.73;;;;;;;;;;4971975;28;20183;-93
2024/02/16 16:50:26;;;;;;;22.10;9.77;;;;;;;;;;4989120;28;20277;-92
2024/02/16 16:53:31;;;;;;;25.58;11.45;;;;;;;;;;4989202;28;20197;-91
2024/02/16 16:56:37;;;;;;;23.95;11.50;;;;;;;;;;4991319;28;20194;-91
2024/02/16 16:59:46;;;;;;;26.30;11.88;;;;;;;;;;4991690;28;20213;-90
2024/02/16 17:02:56;;;;;;;43.50;16.98;;;;;;;;;;4991395;28;20217;-90
2024/02/16 17:06:05;;;;;;;39.83;16.10;;;;;;;;;;4993852;28;20269;-91
2024/02/16 17:12:31;;;;;;;39.65;16.63;;;;;;;;;;5012802;28;20190;-93
2024/02/16 17:15:36;;;;;;;43.53;18.17;;;;;;;;;;4989716;28;20629;-91
2024/02/16 17:18:44;;;;;;;31.48;15.35;;;;;;;;;;4990199;28;20208;-91
2024/02/16 17:21:51;;;;;;;40.13;15.57;;;;;;;;;;4979034;28;20193;-91
2024/02/16 17:24:56;;;;;;;31.45;13.98;;;;;;;;;;4984021;28;20221;-91
2024/02/16 17:28:02;;;;;;;30.25;12.93;;;;;;;;;;4989150;28;20206;-91
2024/02/16 17:31:07;;;;;;;26.95;13.70;;;;;;;;;;4988028;28;20222;-90
2024/02/16 17:34:15;;;;;;;31.67;12.63;;;;;;;;;;4988106;28;20328;-92
2024/02/16 17:37:20;;;;;;;32.97;12.50;;;;;;;;;;4988060;28;20214;-93
2024/02/16 17:40:25;;;;;;;30.17;12.35;;;;;;;;;;4988611;28;20257;-92
2024/02/16 17:43:32;;;;;;;28.92;11.70;;;;;;;;;;4992237;28;20230;-92
2024/02/16 17:46:38;;;;;;;29.77;12.50;;;;;;;;;;4990787;28;20288;-90
2024/02/16 17:49:45;;;;;;;26.58;12.48;;;;;;;;;;4982190;28;20290;-89
2024/02/16 17:52:53;;;;;;;26.00;12.45;;;;;;;;;;4992440;28;20214;-90
2024/02/16 17:55:58;;;;;;;34.90;15.25;;;;;;;;;;4992295;28;20285;-89
2024/02/16 18:02:28;;;;;;;34.58;15.65;;;;;;;;;;4991514;28;20233;-90
2024/02/16 18:05:35;;;;;;;40.13;15.23;;;;;;;;;;4987137;28;20527;-89
2024/02/16 18:08:40;;;;;;;26.48;12.60;;;;;;;;;;4988525;28;20283;-91
2024/02/16 18:11:45;;;;;;;26.13;12.48;;;;;;;;;;4986158;28;20221;-91
2024/02/16 18:14:51;;;;;;;33.72;13.07;;;;;;;;;;4985604;28;20835;-90
2024/02/16 18:17:58;;;;;;;35.35;13.93;;;;;;;;;;4986602;28;20205;-91
2024/02/16 18:21:05;;;;;;;36.53;14.13;;;;;;;;;;4992699;28;20592;-93
2024/02/16 18:24:11;;;;;;;30.08;13.88;;;;;;;;;;4986621;28;20201;-90
2024/02/16 18:27:17;;;;;;;28.98;13.50;;;;;;;;;;4985700;28;20885;-92
2024/02/16 18:30:22;;;;;;;32.40;15.00;;;;;;;;;;4988061;28;20205;-92
2024/02/16 18:33:29;;;;;;;30.42;13.90;;;;;;;;;;4988508;28;20193;-91
2024/02/16 18:36:36;;;;;;;32.75;13.45;;;;;;;;;;4989003;28;20208;-93
2024/02/16 18:39:42;;;;;;;150.35;52.83;;;;;;;;;;4986179;28;20206;-90
2024/02/16 18:42:50;;;;;;;32.25;14.90;;;;;;;;;;4986937;28;20217;-91
2024/02/16 18:45:56;;;;;;;31.17;14.45;;;;;;;;;;4985800;28;20233;-92
2024/02/16 18:49:02;;;;;;;35.80;15.10;;;;;;;;;;4987157;28;20198;-91
2024/02/16 18:52:12;;;;;;;39.40;15.65;;;;;;;;;;5000241;28;20279;-93
2024/02/16 18:55:18;;;;;;;39.00;17.08;;;;;;;;;;4986567;28;20253;-95
2024/02/16 18:58:28;;;;;;;40.80;16.15;;;;;;;;;;4980005;28;20218;-93
2024/02/16 19:01:34;;;;;;;41.70;16.25;;;;;;;;;;4987100;28;20205;-92
2024/02/16 19:04:39;;;;;;;48.42;17.92;;;;;;;;;;4990690;28;20254;-92
2024/02/16 19:07:49;;;;;;;65.22;22.58;;;;;;;;;;4990317;28;20290;-92
2024/02/16 19:10:56;;;;;;;76.65;24.55;;;;;;;;;;4991225;28;20209;-90
2024/02/16 19:14:02;;;;;;;67.95;22.73;;;;;;;;;;4988346;28;20217;-92
2024/02/16 19:17:08;;;;;;;75.07;24.40;;;;;;;;;;4999148;28;20337;-89
2024/02/16 19:20:13;;;;;;;66.10;21.15;;;;;;;;;;4987548;28;20210;-90
2024/02/16 19:23:21;;;;;;;66.68;22.05;;;;;;;;;;4988946;28;20284;-89
2024/02/16 19:26:30;;;;;;;73.90;26.77;;;;;;;;;;4991191;28;20226;-92
2024/02/16 19:29:36;;;;;;;67.25;22.60;;;;;;;;;;4980635;28;20233;-93
2024/02/16 19:32:41;;;;;;;79.45;26.27;;;;;;;;;;4984939;28;20209;-93
2024/02/16 19:35:47;;;;;;;72.97;24.23;;;;;;;;;;4988397;28;20202;-91
2024/02/16 19:38:55;;;;;;;71.10;23.77;;;;;;;;;;4991215;28;20217;-92
2024/02/16 19:42:02;;;;;;;116.28;44.80;;;;;;;;;;4989300;28;20205;-91
2024/02/16 19:45:08;;;;;;;68.53;23.42;;;;;;;;;;4991056;28;20225;-91
2024/02/16 19:48:14;;;;;;;63.35;22.38;;;;;;;;;;4985526;28;20264;-91
2024/02/16 19:51:21;;;;;;;61.95;21.73;;;;;;;;;;4987256;28;20261;-91
2024/02/16 19:54:31;;;;;;;61.08;21.40;;;;;;;;;;4989338;28;20205;-92
2024/02/16 19:57:37;;;;;;;56.55;22.35;;;;;;;;;;4988950;28;20207;-89
2024/02/16 20:00:45;;;;;;;74.47;25.80;;;;;;;;;;4985893;28;20205;-91
2024/02/16 20:03:51;;;;;;;61.67;24.23;;;;;;;;;;4981032;28;20302;-91
2024/02/16 20:06:57;;;;;;;65.82;26.20;;;;;;;;;;4988819;28;20229;-91
2024/02/16 20:10:05;;;;;;;64.38;22.80;;;;;;;;;;4984863;28;20201;-91
2024/02/16 20:13:11;;;;;;;50.72;20.92;;;;;;;;;;4970149;28;20210;-92
2024/02/16 20:16:16;;;;;;;50.80;19.75;;;;;;;;;;4987456;28;20249;-90
2024/02/16 20:19:27;;;;;;;40.78;16.67;;;;;;;;;;4981307;28;20213;-90
2024/02/16 20:22:32;;;;;;;32.95;15.07;;;;;;;;;;4988054;28;20389;-92
2024/02/16 20:25:39;;;;;;;45.20;18.48;;;;;;;;;;4981909;28;20280;-89
2024/02/16 20:28:45;;;;;;;60.65;22.33;;;;;;;;;;4987605;28;20202;-90
2024/02/16 20:31:50;;;;;;;45.60;19.10;;;;;;;;;;4988118;28;20200;-91